KMSP/MSP METAR and TAF weather

Enter ICAO airport designator
Station Type Date Time Source
KMSP METAR 2020/11/27 14:53 UTC NOAA

KMSP 271453Z 30011KT 10SM CLR M02/M07 A3014 RMK AO2 SLP216 T10171067 53020


Station Type Date Time Source
KMSP Decoded METAR 2020/11/27 14:53 UTC NOAA

MINNEAPOLIS-ST PAUL INTERNATIONAL , MN, United States (KMSP) 44-52N 93-13W 265M
Nov 27, 2020 - 09:53 AM EST / 2020.11.27 1453 UTC
Wind: from the WNW (300 degrees) at 13 MPH (11 KT):0
Visibility: 10 mile(s):0
Sky conditions: clear
Temperature: 28.9 F (-1.7 C)
Windchill: 17 F (-8 C):1
Dew Point: 19.9 F (-6.7 C)
Relative Humidity: 68%
Pressure (altimeter): 30.14 in. Hg (1020 hPa)
Pressure tendency: 0.06 inches (2.0 hPa) higher than three hours ago
ob: KMSP 271453Z 30011KT 10SM CLR M02/M07 A3014 RMK AO2 SLP216 T10171067 53020
cycle: 15

Station Type Date Time Source
KMSP TAF 2020/11/27 14:22 UTC NOAA

TAF
AMD KMSP 271420Z 2714/2818 28009KT P6SM SKC
FM280000 20007KT P6SM SKC

Example: see airport list